Terminal Aerodrome Forecast
Issued by NWS

Home | Current Version | Previous Version | Text Only | Print | Product List | Glossary Off
Versions: 1 2 3 4 5 6 7 8 9 10 11 12 13 14 15 16 17 18 19 20 21

000
FTUS43 KABR 220500
TAFPIR
TAF
KPIR 220520Z 2206/2306 VRB05KT P6SM BKN200
     FM221400 08007KT P6SM BKN200
     FM230100 09010KT P6SM OVC050=

USA.gov is the U.S. government's official web portal to all federal, state and local government web resources and services.